Time;durP1;ratioP1;P1;durP2;ratioP2;P2;SDS_P1;SDS_P2;PMS_P1;PMS_P2;Temp;Humidity;BMP_temperature;BMP_pressure;BME280_temperature;BME280_humidity;BME280_pressure;Samples;Min_cycle;Max_cycle;Signal;HPM_P1;HPM_P2
2023/03/22 00:00:38;;;;;;;82.85;41.90;;;;;;;7.58;74.33;98402.22;4972299;28;20089;-76
2023/03/22 00:03:04;;;;;;;77.07;40.42;;;;;;;7.60;74.36;98399.19;4973279;28;20484;-76
2023/03/22 00:05:31;;;;;;;78.88;40.60;;;;;;;7.61;74.91;98392.63;4972100;28;20033;-76
2023/03/22 00:07:57;;;;;;;77.68;40.65;;;;;;;7.60;74.68;98393.72;4972310;28;20080;-75
2023/03/22 00:10:24;;;;;;;71.47;38.85;;;;;;;7.61;74.68;98387.19;4973662;28;20443;-76
2023/03/22 00:12:51;;;;;;;81.28;40.42;;;;;;;7.59;74.42;98395.66;4973373;28;20109;-76
2023/03/22 00:15:17;;;;;;;80.47;40.40;;;;;;;7.60;74.43;98394.56;4973546;28;20069;-76
2023/03/22 00:17:43;;;;;;;89.80;44.90;;;;;;;7.59;74.70;98387.47;4973089;28;20482;-76
2023/03/22 00:20:10;;;;;;;88.75;43.13;;;;;;;7.57;74.32;98388.81;4973289;28;20023;-76
2023/03/22 00:22:35;;;;;;;87.88;44.05;;;;;;;7.55;74.23;98386.38;4972666;28;20077;-76
2023/03/22 00:25:01;;;;;;;84.20;42.95;;;;;;;7.53;74.45;98382.31;4973063;28;20499;-76
2023/03/22 00:27:26;;;;;;;83.88;41.45;;;;;;;7.50;74.84;98383.66;4972571;28;20047;-77
2023/03/22 00:29:52;;;;;;;85.03;43.47;;;;;;;7.45;74.27;98380.94;4972965;28;20023;-75
2023/03/22 00:32:17;;;;;;;84.20;42.28;;;;;;;7.41;74.41;98385.31;4972537;28;20035;-74
2023/03/22 00:34:43;;;;;;;84.00;42.72;;;;;;;7.35;74.64;98373.63;4973375;28;20466;-74
2023/03/22 00:37:08;;;;;;;85.25;44.15;;;;;;;7.30;74.57;98369.00;4973523;28;20049;-74
2023/03/22 00:39:34;;;;;;;90.03;46.20;;;;;;;7.26;74.48;98353.44;4973556;28;20046;-74
2023/03/22 00:41:59;;;;;;;91.05;46.60;;;;;;;7.19;74.28;98344.75;4973639;28;20460;-74
2023/03/22 00:44:25;;;;;;;95.63;45.85;;;;;;;7.13;74.42;98350.19;4973374;28;20038;-74
2023/03/22 00:46:50;;;;;;;96.45;46.90;;;;;;;7.10;74.34;98339.03;4974122;28;20030;-74
2023/03/22 00:49:15;;;;;;;95.13;46.58;;;;;;;7.05;74.64;98339.88;4972756;28;20391;-75
2023/03/22 00:51:41;;;;;;;90.85;45.05;;;;;;;6.99;74.71;98343.69;4984947;28;20026;-74
2023/03/22 00:54:08;;;;;;;89.53;42.97;;;;;;;6.95;74.53;98345.34;4992735;28;20037;-74
2023/03/22 00:56:36;;;;;;;95.15;45.85;;;;;;;6.92;74.65;98341.28;4992689;28;20069;-74
2023/03/22 00:59:02;;;;;;;87.70;43.78;;;;;;;6.88;74.15;98329.28;4992243;28;20037;-74
2023/03/22 01:01:27;;;;;;;95.80;46.55;;;;;;;6.84;74.51;98334.44;4992139;28;20031;-74
2023/03/22 01:03:53;;;;;;;94.10;47.75;;;;;;;6.81;74.77;98335.00;4992520;28;20097;-74
2023/03/22 01:06:18;;;;;;;91.53;46.55;;;;;;;6.77;74.71;98325.72;4991207;28;20022;-74
2023/03/22 01:08:44;;;;;;;93.85;46.90;;;;;;;6.76;74.56;98326.00;4980563;28;20035;-75
2023/03/22 01:11:09;;;;;;;90.18;46.08;;;;;;;6.72;74.62;98328.47;4986942;28;20070;-74
2023/03/22 01:13:40;;;;;;;92.03;44.97;;;;;;;6.69;74.52;98329.84;4972452;28;20027;-75
2023/03/22 01:16:06;;;;;;;96.75;48.67;;;;;;;6.67;74.53;98331.22;4972720;28;20030;-75
2023/03/22 01:18:32;;;;;;;100.22;47.67;;;;;;;6.65;75.01;98330.66;4972125;28;20034;-74
2023/03/22 01:20:59;;;;;;;121.75;54.53;;;;;;;6.63;74.68;98330.13;4972305;28;20026;-74
2023/03/22 01:23:24;;;;;;;134.35;56.53;;;;;;;6.55;74.59;98324.13;4972404;28;20446;-74
2023/03/22 01:25:50;;;;;;;105.53;49.60;;;;;;;6.51;74.43;98325.75;4972142;28;20182;-74
2023/03/22 01:28:15;;;;;;;111.97;50.92;;;;;;;6.47;74.85;98318.41;4972398;28;20027;-74
2023/03/22 01:30:40;;;;;;;103.63;48.92;;;;;;;6.40;74.70;98316.78;4972277;28;20023;-74
2023/03/22 01:33:06;;;;;;;100.00;50.38;;;;;;;6.35;74.30;98319.50;4971909;28;20027;-75
2023/03/22 01:35:33;;;;;;;105.57;49.53;;;;;;;6.27;74.49;98320.03;4972174;28;20510;-75
2023/03/22 01:37:58;;;;;;;93.40;47.75;;;;;;;6.20;74.26;98314.84;4971852;28;20038;-74
2023/03/22 01:40:26;;;;;;;98.38;47.60;;;;;;;6.12;74.10;98315.38;4972136;28;20031;-74
2023/03/22 01:42:52;;;;;;;99.40;49.70;;;;;;;6.05;74.12;98312.09;4972058;28;20065;-74
2023/03/22 01:45:31;;;;;;;95.07;46.95;;;;;;;5.97;74.18;98316.97;4972051;28;20027;-75
2023/03/22 01:48:01;;;;;;;90.13;44.78;;;;;;;5.93;73.99;98318.56;4971845;28;20027;-75
2023/03/22 01:50:27;;;;;;;95.07;46.95;;;;;;;5.88;74.01;98309.59;4972210;28;20030;-74
2023/03/22 01:52:55;;;;;;;91.47;45.92;;;;;;;5.81;74.34;98323.47;4967927;28;20051;-74
2023/03/22 01:55:22;;;;;;;101.70;47.70;;;;;;;5.74;74.25;98314.72;4971425;28;20035;-74
2023/03/22 01:57:49;;;;;;;106.85;47.83;;;;;;;5.69;73.93;98309.28;4971530;28;20035;-75
2023/03/22 02:00:15;;;;;;;102.97;46.10;;;;;;;5.62;74.22;98304.09;4971943;28;20537;-74
2023/03/22 02:02:42;;;;;;;97.88;45.95;;;;;;;5.54;73.64;98294.53;4971499;28;20034;-74
2023/03/22 02:05:08;;;;;;;95.28;42.65;;;;;;;5.48;73.77;98296.44;4971905;28;20038;-74
2023/03/22 02:07:36;;;;;;;98.07;44.95;;;;;;;5.42;73.52;98286.59;4983375;28;20058;-74
2023/03/22 02:10:02;;;;;;;90.22;43.83;;;;;;;5.37;74.06;98286.59;4979826;28;20161;-72
2023/03/22 02:12:49;;;;;;;83.00;41.35;;;;;;;5.30;73.88;98288.75;4971641;28;20023;-72
2023/03/22 02:15:30;;;;;;;83.97;42.10;;;;;;;5.24;73.98;98287.09;4971742;28;20168;-72
2023/03/22 02:18:10;;;;;;;86.07;42.25;;;;;;;5.15;73.71;98289.47;4971978;28;20400;-72
2023/03/22 02:21:07;;;;;;;82.28;41.90;;;;;;;5.09;74.12;98283.22;4972652;28;20039;-71
2023/03/22 02:24:19;;;;;;;85.80;43.67;;;;;;;5.04;73.67;98281.31;4972070;28;20055;-71
2023/03/22 02:27:01;;;;;;;89.75;41.53;;;;;;;5.03;73.96;98279.66;4972231;28;20046;-72
2023/03/22 02:29:31;;;;;;;84.07;40.00;;;;;;;5.00;74.23;98285.63;4971820;28;20585;-72
2023/03/22 02:32:20;;;;;;;78.45;39.17;;;;;;;5.01;74.57;98284.53;4972142;28;20050;-71
2023/03/22 02:34:57;;;;;;;80.47;40.20;;;;;;;4.99;73.93;98277.72;4972137;28;20037;-72
2023/03/22 02:37:46;;;;;;;89.60;44.10;;;;;;;4.98;74.13;98276.91;4971944;28;20034;-71
2023/03/22 02:40:27;;;;;;;95.65;46.25;;;;;;;4.96;74.54;98265.50;4971795;28;20039;-72
2023/03/22 02:43:12;;;;;;;104.93;49.92;;;;;;;4.99;74.38;98270.41;4988485;28;20023;-71
2023/03/22 02:45:54;;;;;;;107.65;50.45;;;;;;;5.03;74.88;98274.22;4990043;28;20034;-72
2023/03/22 02:48:30;;;;;;;104.60;49.47;;;;;;;5.05;74.94;98261.19;4991642;28;20033;-71
2023/03/22 02:51:25;;;;;;;100.10;48.55;;;;;;;5.10;75.18;98254.13;4991278;28;20069;-71
2023/03/22 02:54:00;;;;;;;94.70;46.85;;;;;;;5.13;75.38;98259.03;4986828;28;20041;-71
2023/03/22 02:56:34;;;;;;;94.07;47.17;;;;;;;5.15;75.20;98256.84;4991616;28;20022;-71
2023/03/22 02:59:03;;;;;;;88.55;44.33;;;;;;;5.18;75.45;98262.59;4991305;28;20118;-71
2023/03/22 03:01:36;;;;;;;87.00;43.92;;;;;;;5.20;75.44;98249.56;4990869;28;20463;-71
2023/03/22 03:04:06;;;;;;;85.20;42.95;;;;;;;5.25;75.09;98254.19;4991179;28;20062;-72
2023/03/22 03:06:37;;;;;;;80.65;43.92;;;;;;;5.29;75.40;98258.00;4991275;28;20026;-71
2023/03/22 03:09:04;;;;;;;82.28;43.00;;;;;;;5.32;75.29;98256.66;4994666;28;20419;-73
2023/03/22 03:11:30;;;;;;;89.88;47.00;;;;;;;5.33;75.09;98253.69;4994591;28;20034;-73
2023/03/22 03:13:55;;;;;;;91.85;46.67;;;;;;;5.36;75.73;98249.59;4994464;28;20031;-73
2023/03/22 03:16:26;;;;;;;93.30;46.65;;;;;;;5.39;75.20;98256.41;4994938;28;20018;-72
2023/03/22 03:18:59;;;;;;;94.13;48.13;;;;;;;5.41;75.74;98262.41;4978027;28;20030;-72
2023/03/22 03:21:33;;;;;;;94.32;46.65;;;;;;;5.44;75.56;98268.13;4975740;28;20026;-73
2023/03/22 03:24:10;;;;;;;88.88;45.75;;;;;;;5.46;75.28;98260.50;4991872;28;20026;-74
2023/03/22 03:26:55;;;;;;;91.40;45.65;;;;;;;5.48;75.27;98266.50;4994923;28;20051;-74
2023/03/22 03:29:31;;;;;;;90.40;45.63;;;;;;;5.49;75.89;98265.41;4973639;28;20534;-74
2023/03/22 03:32:00;;;;;;;94.10;45.50;;;;;;;5.55;75.52;98268.97;4974520;28;20038;-74
2023/03/22 03:34:34;;;;;;;90.03;45.03;;;;;;;5.59;76.14;98263.81;4975249;28;20110;-74
2023/03/22 03:37:14;;;;;;;88.00;46.33;;;;;;;5.61;75.25;98259.72;4975423;28;20031;-74
2023/03/22 03:39:56;;;;;;;89.90;45.85;;;;;;;5.65;75.52;98260.84;4975070;28;20026;-74
2023/03/22 03:42:26;;;;;;;92.47;45.10;;;;;;;5.68;75.67;98258.66;4974850;28;20034;-74
2023/03/22 03:44:52;;;;;;;97.07;45.15;;;;;;;5.68;75.41;98261.38;4974279;28;20023;-75
2023/03/22 03:47:18;;;;;;;90.35;46.15;;;;;;;5.69;75.88;98254.84;4980563;28;20026;-75
2023/03/22 03:49:43;;;;;;;88.70;45.63;;;;;;;5.72;75.93;98254.31;4993876;28;20026;-75
2023/03/22 03:52:09;;;;;;;90.40;44.20;;;;;;;5.71;75.70;98256.22;4993915;28;20030;-75
2023/03/22 03:54:34;;;;;;;84.45;42.42;;;;;;;5.76;75.52;98263.59;4994122;28;20093;-74
2023/03/22 03:57:00;;;;;;;79.82;40.97;;;;;;;5.81;75.74;98264.41;4993517;28;20027;-75
2023/03/22 03:59:26;;;;;;;75.65;39.05;;;;;;;5.87;75.85;98258.97;4992574;28;20022;-74
2023/03/22 04:01:51;;;;;;;79.20;39.05;;;;;;;5.91;76.05;98249.97;4992272;28;20034;-75
2023/03/22 04:04:26;;;;;;;74.45;38.97;;;;;;;5.95;76.05;98253.78;4992242;28;20498;-74
2023/03/22 04:06:56;;;;;;;69.72;37.53;;;;;;;5.99;75.97;98250.53;4992452;28;20026;-74
2023/03/22 04:09:23;;;;;;;75.63;39.67;;;;;;;6.01;76.10;98251.94;4991991;28;20533;-75
2023/03/22 04:11:49;;;;;;;77.43;39.15;;;;;;;6.03;75.75;98247.03;4992147;28;20034;-75
2023/03/22 04:14:14;;;;;;;77.65;39.67;;;;;;;6.08;76.09;98248.94;4993530;28;20053;-75
2023/03/22 04:16:40;;;;;;;76.95;37.60;;;;;;;6.10;76.18;98254.94;4993859;28;20038;-74
2023/03/22 04:19:05;;;;;;;75.97;38.85;;;;;;;6.14;75.88;98253.31;4992678;28;20023;-75
2023/03/22 04:21:30;;;;;;;76.13;38.88;;;;;;;6.16;76.14;98248.41;4974418;28;20464;-75
2023/03/22 04:23:56;;;;;;;75.75;38.17;;;;;;;6.20;75.89;98251.38;4974556;28;20027;-75
2023/03/22 04:26:21;;;;;;;71.18;38.75;;;;;;;6.23;75.86;98251.69;4988274;28;20420;-74
2023/03/22 04:28:47;;;;;;;80.07;39.30;;;;;;;6.25;75.68;98252.22;4974194;28;20161;-75
2023/03/22 04:31:12;;;;;;;71.60;37.72;;;;;;;6.31;75.95;98253.03;4974342;28;20023;-75
2023/03/22 04:33:39;;;;;;;75.85;39.10;;;;;;;6.34;76.38;98252.47;4974149;28;20033;-75
2023/03/22 04:36:09;;;;;;;73.65;37.90;;;;;;;6.35;76.26;98245.94;4974302;28;20019;-75
2023/03/22 04:38:38;;;;;;;70.13;36.92;;;;;;;6.39;76.01;98249.75;4974033;28;20034;-75
2023/03/22 04:41:04;;;;;;;73.10;37.25;;;;;;;6.44;75.66;98248.91;4974165;28;20035;-76
2023/03/22 04:43:33;;;;;;;69.25;36.75;;;;;;;6.48;76.27;98251.94;4974071;28;20475;-75
2023/03/22 04:46:00;;;;;;;67.18;36.50;;;;;;;6.51;75.99;98249.47;4974139;28;20050;-75
2023/03/22 04:48:26;;;;;;;69.18;35.92;;;;;;;6.55;76.29;98257.91;4973932;28;20031;-75
2023/03/22 04:50:52;;;;;;;70.40;37.47;;;;;;;6.57;75.96;98257.63;4974221;28;20027;-75
2023/03/22 04:53:18;;;;;;;68.47;34.50;;;;;;;6.59;76.29;98255.44;4974279;28;20565;-75
2023/03/22 04:55:44;;;;;;;67.35;34.00;;;;;;;6.64;76.29;98256.25;4973836;28;20030;-74
2023/03/22 04:58:09;;;;;;;72.40;36.35;;;;;;;6.69;76.35;98258.16;4974096;28;20031;-75
2023/03/22 05:00:36;;;;;;;69.90;35.72;;;;;;;6.71;76.09;98258.72;4974351;28;20097;-74
2023/03/22 05:03:02;;;;;;;72.68;35.97;;;;;;;6.74;76.25;98269.03;4974038;28;20069;-75
2023/03/22 05:05:28;;;;;;;68.15;35.55;;;;;;;6.77;76.05;98257.59;4974140;28;20046;-75
2023/03/22 05:07:55;;;;;;;68.72;36.30;;;;;;;6.82;76.24;98259.50;4973664;28;20262;-75
2023/03/22 05:10:20;;;;;;;67.88;36.00;;;;;;;6.85;76.28;98262.47;4974063;28;20022;-75
2023/03/22 05:12:46;;;;;;;65.95;36.58;;;;;;;6.90;76.08;98260.84;4973841;28;20022;-75
2023/03/22 05:15:12;;;;;;;65.90;35.28;;;;;;;6.91;76.33;98257.84;4982030;28;20367;-74
2023/03/22 05:17:37;;;;;;;67.20;35.47;;;;;;;6.93;76.03;98263.81;4993254;28;20026;-75
2023/03/22 05:20:08;;;;;;;68.43;35.08;;;;;;;6.94;76.30;98259.19;4993654;28;20356;-75
2023/03/22 05:22:36;;;;;;;65.03;35.10;;;;;;;6.93;75.92;98257.56;4993191;28;20101;-75
2023/03/22 05:25:03;;;;;;;72.28;37.40;;;;;;;6.94;76.21;98261.91;4993015;28;20037;-74
2023/03/22 05:27:33;;;;;;;71.93;36.70;;;;;;;6.92;76.14;98264.94;4992691;28;20533;-75
2023/03/22 05:29:59;;;;;;;66.18;36.28;;;;;;;6.94;75.88;98257.25;4992450;28;20414;-75
2023/03/22 05:32:27;;;;;;;70.13;37.33;;;;;;;6.97;76.07;98255.91;4991569;28;20080;-75
2023/03/22 05:34:53;;;;;;;65.60;36.00;;;;;;;6.98;76.02;98263.00;4991212;28;20117;-74
2023/03/22 05:37:19;;;;;;;67.20;36.08;;;;;;;7.03;75.93;98259.44;4973126;28;20398;-75
2023/03/22 05:39:45;;;;;;;63.30;36.08;;;;;;;7.05;76.28;98257.25;4969641;28;20118;-75
2023/03/22 05:42:10;;;;;;;67.78;35.35;;;;;;;7.04;75.88;98256.44;4973227;28;20121;-75
2023/03/22 05:44:36;;;;;;;60.78;33.80;;;;;;;7.06;76.04;98259.69;4973526;28;20486;-74
2023/03/22 05:47:01;;;;;;;62.95;34.08;;;;;;;7.07;75.93;98264.06;4973673;28;20104;-74
2023/03/22 05:49:27;;;;;;;65.53;34.00;;;;;;;7.09;76.13;98261.88;4973249;28;20050;-74
2023/03/22 05:51:52;;;;;;;61.28;33.03;;;;;;;7.12;75.87;98263.22;4973279;28;20110;-75
2023/03/22 05:54:17;;;;;;;61.03;33.30;;;;;;;7.13;76.26;98259.41;4973354;28;20077;-75
2023/03/22 05:56:43;;;;;;;59.78;32.72;;;;;;;7.18;75.92;98266.72;4973067;28;20027;-74
2023/03/22 05:59:08;;;;;;;59.60;32.33;;;;;;;7.21;76.18;98256.09;4972684;28;20468;-75
2023/03/22 06:01:34;;;;;;;58.60;32.65;;;;;;;7.24;76.13;98254.72;4973087;28;20030;-75
2023/03/22 06:03:59;;;;;;;65.05;35.47;;;;;;;7.26;75.78;98258.81;4972969;28;20468;-74
2023/03/22 06:06:26;;;;;;;59.30;34.00;;;;;;;7.29;76.05;98254.69;4972422;28;20030;-75
2023/03/22 06:08:52;;;;;;;60.28;34.35;;;;;;;7.35;76.05;98263.66;4971639;28;20027;-75
2023/03/22 06:11:18;;;;;;;63.85;33.75;;;;;;;7.39;76.08;98262.84;4971453;28;20066;-75
2023/03/22 06:13:43;;;;;;;61.38;34.10;;;;;;;7.43;75.76;98266.63;4972154;28;20027;-75
2023/03/22 06:16:09;;;;;;;58.65;33.28;;;;;;;7.47;75.46;98266.88;4972518;28;20372;-75
2023/03/22 06:18:35;;;;;;;56.95;32.10;;;;;;;7.48;75.44;98260.34;4972015;28;20027;-75
2023/03/22 06:21:00;;;;;;;62.08;34.28;;;;;;;7.51;75.96;98273.41;4971896;28;20030;-75
2023/03/22 06:23:25;;;;;;;61.35;33.83;;;;;;;7.57;76.30;98268.75;4972355;28;20069;-74
2023/03/22 06:25:51;;;;;;;64.25;35.10;;;;;;;7.61;75.34;98261.63;4972415;28;20463;-75
2023/03/22 06:28:16;;;;;;;60.03;33.03;;;;;;;7.63;76.03;98272.28;4972188;28;20062;-75
2023/03/22 06:30:42;;;;;;;63.45;34.22;;;;;;;7.64;75.93;98268.44;4972271;28;20022;-75
2023/03/22 06:33:07;;;;;;;58.65;31.77;;;;;;;7.67;75.81;98268.69;4972019;28;20059;-75
2023/03/22 06:35:33;;;;;;;58.17;33.05;;;;;;;7.70;75.89;98268.13;4971443;28;20023;-75
2023/03/22 06:37:59;;;;;;;65.50;37.38;;;;;;;7.72;75.66;98265.13;4970902;28;20045;-75
2023/03/22 06:40:25;;;;;;;59.65;33.95;;;;;;;7.75;75.30;98259.06;4972260;28;20022;-75
2023/03/22 06:42:50;;;;;;;64.40;34.78;;;;;;;7.79;75.80;98262.06;4971645;28;20030;-74
2023/03/22 06:45:16;;;;;;;62.55;35.60;;;;;;;7.83;75.70;98263.94;4972196;28;20034;-74
2023/03/22 06:47:42;;;;;;;65.43;35.28;;;;;;;7.87;75.56;98272.41;4972161;28;20027;-75
2023/03/22 06:50:09;;;;;;;58.05;32.70;;;;;;;7.90;75.40;98267.19;4972320;28;20061;-75
2023/03/22 06:52:34;;;;;;;59.28;31.95;;;;;;;7.95;75.22;98266.31;4972302;28;20518;-76
2023/03/22 06:55:00;;;;;;;58.95;32.95;;;;;;;8.00;75.32;98265.50;4972352;28;20035;-75
2023/03/22 06:57:25;;;;;;;63.75;34.67;;;;;;;8.03;75.29;98267.66;4971910;28;20566;-75
2023/03/22 06:59:50;;;;;;;67.15;35.45;;;;;;;8.09;75.31;98279.34;4972165;28;20031;-75
2023/03/22 07:02:16;;;;;;;62.38;33.45;;;;;;;8.10;75.40;98270.88;4972016;28;20030;-75
2023/03/22 07:04:41;;;;;;;62.95;34.58;;;;;;;8.14;75.56;98271.94;4972557;28;20403;-75
2023/03/22 07:07:07;;;;;;;61.38;34.33;;;;;;;8.21;75.22;98268.88;4972393;28;20037;-75
2023/03/22 07:09:32;;;;;;;62.58;34.65;;;;;;;8.25;74.92;98278.16;4986347;28;20050;-74
2023/03/22 07:11:57;;;;;;;63.63;36.53;;;;;;;8.29;75.41;98283.84;4972115;28;20382;-75
2023/03/22 07:14:23;;;;;;;66.18;35.85;;;;;;;8.36;75.38;98281.59;4972030;28;20030;-75
2023/03/22 07:16:48;;;;;;;62.78;35.40;;;;;;;8.45;75.16;98284.53;4972108;28;20558;-75
2023/03/22 07:19:13;;;;;;;68.05;35.58;;;;;;;8.57;75.28;98286.91;4971892;28;20538;-75
2023/03/22 07:21:39;;;;;;;61.83;31.98;;;;;;;8.67;75.03;98284.09;4971528;28;20035;-75
2023/03/22 07:24:06;;;;;;;57.78;31.65;;;;;;;8.79;74.93;98280.97;4970454;28;20171;-74
2023/03/22 07:26:32;;;;;;;61.08;33.88;;;;;;;8.91;75.35;98278.66;4971492;28;20058;-75
2023/03/22 07:28:57;;;;;;;55.55;30.38;;;;;;;9.02;75.02;98278.56;4971441;28;20031;-74
2023/03/22 07:31:22;;;;;;;57.60;32.00;;;;;;;9.10;75.37;98272.44;4969986;28;20060;-73
2023/03/22 07:33:48;;;;;;;56.05;31.98;;;;;;;9.22;75.24;98270.09;4967291;28;20082;-74
2023/03/22 07:36:14;;;;;;;61.72;34.88;;;;;;;9.33;74.65;98268.06;4970572;28;20042;-74
2023/03/22 07:38:40;;;;;;;52.30;31.10;;;;;;;9.47;74.93;98270.91;4969725;28;20035;-73
2023/03/22 07:41:05;;;;;;;56.45;31.88;;;;;;;9.60;75.26;98263.06;4970415;28;20125;-72
2023/03/22 07:43:31;;;;;;;50.65;28.50;;;;;;;9.73;74.58;98267.81;4968494;28;20373;-74
2023/03/22 07:45:57;;;;;;;51.63;29.40;;;;;;;9.89;74.57;98273.88;4968856;28;20027;-74
2023/03/22 07:48:23;;;;;;;50.53;27.33;;;;;;;9.98;74.59;98266.63;4968743;28;20085;-80
2023/03/22 07:50:49;;;;;;;53.88;29.55;;;;;;;10.04;74.52;98264.63;4969219;28;20050;-72
2023/03/22 07:53:14;;;;;;;49.53;28.45;;;;;;;10.10;74.44;98265.38;4971204;28;20656;-72
2023/03/22 07:55:42;;;;;;;49.03;28.52;;;;;;;10.18;74.03;98267.44;4973693;28;20022;-71
2023/03/22 07:58:08;;;;;;;47.33;29.05;;;;;;;10.25;72.94;98258.81;4988863;28;20027;-71
2023/03/22 08:00:33;;;;;;;49.17;28.70;;;;;;;10.29;74.05;98251.63;4972533;28;20030;-71
2023/03/22 08:03:00;;;;;;;48.53;27.75;;;;;;;10.30;73.60;98256.00;4974350;28;20050;-72
2023/03/22 08:05:26;;;;;;;53.83;31.45;;;;;;;10.31;72.73;98254.06;4971754;28;20559;-72
2023/03/22 08:07:53;;;;;;;51.42;30.98;;;;;;;10.31;73.26;98252.16;4972707;28;20102;-72
2023/03/22 08:10:19;;;;;;;48.22;30.63;;;;;;;10.32;72.84;98262.00;4972958;28;20790;-72
2023/03/22 08:12:44;;;;;;;53.67;33.88;;;;;;;10.33;73.23;98258.16;4971519;28;20022;-72
2023/03/22 08:15:10;;;;;;;54.42;33.75;;;;;;;10.38;73.05;98259.97;4972527;28;20031;-73
2023/03/22 08:17:35;;;;;;;53.55;33.28;;;;;;;10.47;73.04;98258.22;4972260;28;20027;-71
2023/03/22 08:20:07;;;;;;;52.28;31.45;;;;;;;10.55;72.78;98252.06;4971926;28;20035;-73
2023/03/22 08:22:35;;;;;;;55.80;31.20;;;;;;;10.67;72.07;98259.78;4989845;28;20064;-72
2023/03/22 08:25:01;;;;;;;46.70;27.83;;;;;;;10.78;72.76;98252.19;4972361;28;20034;-73
2023/03/22 08:27:26;;;;;;;46.17;27.73;;;;;;;10.90;72.71;98257.16;4972189;28;20039;-73
2023/03/22 08:29:52;;;;;;;44.85;26.35;;;;;;;11.01;72.74;98252.28;4972501;28;20383;-73
2023/03/22 08:32:17;;;;;;;43.38;26.17;;;;;;;11.11;71.88;98245.81;4972188;28;20081;-74
2023/03/22 08:34:43;;;;;;;43.20;25.92;;;;;;;11.20;72.19;98244.00;4971907;28;20026;-76
2023/03/22 08:37:10;;;;;;;40.75;25.67;;;;;;;11.26;71.97;98248.22;4972949;28;20031;-75
2023/03/22 08:39:36;;;;;;;39.58;25.38;;;;;;;11.37;71.62;98245.28;4971997;28;20035;-74
2023/03/22 08:42:02;;;;;;;38.78;24.52;;;;;;;11.45;71.61;98244.56;4971925;28;20042;-73
2023/03/22 08:44:28;;;;;;;36.85;21.90;;;;;;;11.50;71.45;98243.63;4972132;28;20118;-73
2023/03/22 08:46:54;;;;;;;35.67;21.05;;;;;;;11.54;71.37;98253.72;4970818;28;20163;-75
2023/03/22 08:49:22;;;;;;;36.28;21.90;;;;;;;11.60;71.26;98246.16;4971195;28;20531;-72
2023/03/22 08:51:48;;;;;;;36.42;21.58;;;;;;;11.71;71.57;98246.75;4971296;28;20034;-72
2023/03/22 08:54:13;;;;;;;32.10;20.27;;;;;;;11.82;71.22;98250.09;4971762;28;20019;-71
2023/03/22 08:56:40;;;;;;;34.00;20.67;;;;;;;11.95;71.07;98240.97;4972207;28;20031;-73
2023/03/22 08:59:07;;;;;;;31.77;18.52;;;;;;;12.08;70.28;98246.78;4968677;28;20069;-71
2023/03/22 09:01:34;;;;;;;31.23;18.27;;;;;;;12.20;68.90;98242.34;4971434;28;20126;-72
2023/03/22 09:04:00;;;;;;;30.95;19.17;;;;;;;12.32;69.73;98246.47;4971760;28;20023;-77
2023/03/22 09:06:26;;;;;;;25.83;17.27;;;;;;;12.43;69.45;98241.50;4971585;28;20046;-72
2023/03/22 09:08:52;;;;;;;28.15;17.05;;;;;;;12.53;69.26;98238.50;4971324;28;20057;-72
2023/03/22 09:11:18;;;;;;;30.92;18.15;;;;;;;12.64;69.24;98239.06;4971089;28;20038;-72
2023/03/22 09:13:44;;;;;;;29.27;18.30;;;;;;;12.76;68.60;98235.72;4967230;28;20031;-72
2023/03/22 09:16:10;;;;;;;30.60;17.98;;;;;;;12.84;68.31;98237.69;4969940;28;20098;-73
2023/03/22 09:18:37;;;;;;;28.67;17.08;;;;;;;12.91;67.72;98228.97;4971092;28;20015;-73
2023/03/22 09:21:04;;;;;;;26.55;16.67;;;;;;;13.00;67.94;98229.81;4971355;28;20033;-73
2023/03/22 09:23:31;;;;;;;29.08;16.92;;;;;;;13.12;67.70;98233.94;4973006;28;20038;-73
2023/03/22 09:25:59;;;;;;;25.08;15.38;;;;;;;13.20;67.73;98235.91;4972253;28;20047;-73
2023/03/22 09:28:25;;;;;;;26.40;16.67;;;;;;;13.29;67.57;98225.69;4970425;28;20031;-72
2023/03/22 09:30:50;;;;;;;27.33;15.55;;;;;;;13.44;67.60;98226.41;4971148;28;20022;-71
2023/03/22 09:33:15;;;;;;;22.90;14.93;;;;;;;13.54;67.17;98228.88;4971101;28;20038;-73
2023/03/22 09:35:42;;;;;;;24.23;15.13;;;;;;;13.64;66.48;98222.25;4971331;28;20058;-74
2023/03/22 09:38:08;;;;;;;22.13;14.38;;;;;;;13.74;66.63;98218.34;4971478;28;20031;-73
2023/03/22 09:40:38;;;;;;;20.27;14.00;;;;;;;13.83;66.38;98208.97;4981562;28;20058;-73
2023/03/22 09:43:06;;;;;;;25.15;15.20;;;;;;;13.91;65.79;98214.78;4969103;28;20045;-73
2023/03/22 09:45:38;;;;;;;20.90;14.65;;;;;;;13.97;66.00;98225.34;4969181;28;20415;-74
2023/03/22 09:48:32;;;;;;;19.27;13.50;;;;;;;14.10;64.49;98215.28;4970423;28;20062;-73
2023/03/22 09:51:00;;;;;;;25.67;15.77;;;;;;;14.17;64.75;98209.25;4969064;28;20101;-74
2023/03/22 09:53:27;;;;;;;23.88;15.98;;;;;;;14.24;64.17;98211.53;4971270;28;20388;-72
2023/03/22 09:56:19;;;;;;;20.33;14.10;;;;;;;14.27;63.47;98213.63;4967746;28;20022;-72
2023/03/22 09:58:49;;;;;;;18.85;12.68;;;;;;;14.36;62.01;98205.34;4965459;28;20574;-73
2023/03/22 10:01:44;;;;;;;21.70;12.95;;;;;;;14.35;63.43;98204.53;4971509;28;20595;-72
2023/03/22 10:04:29;;;;;;;22.88;12.68;;;;;;;14.38;62.80;98209.38;4970769;28;20034;-72
2023/03/22 10:07:06;;;;;;;19.15;12.63;;;;;;;14.36;62.99;98200.63;4971436;28;20038;-72
2023/03/22 10:09:54;;;;;;;18.83;12.23;;;;;;;14.37;62.61;98202.25;4971501;28;20387;-72
2023/03/22 10:12:28;;;;;;;18.33;13.23;;;;;;;14.33;62.03;98195.75;4968968;28;20031;-73
2023/03/22 10:15:02;;;;;;;17.92;12.05;;;;;;;14.27;62.62;98191.56;4971020;28;20027;-74
2023/03/22 10:17:28;;;;;;;20.40;13.98;;;;;;;14.25;62.51;98180.06;4970743;28;20030;-73
2023/03/22 10:20:08;;;;;;;15.63;11.27;;;;;;;14.26;62.71;98185.25;4985209;28;20675;-73
2023/03/22 10:22:35;;;;;;;;;;;;;;;14.27;62.38;98192.38;4971079;28;20051;-74
2023/03/22 10:25:02;;;;;;;15.18;10.05;;;;;;;14.27;62.19;98197.06;4969936;28;19964;-74
2023/03/22 10:27:29;;;;;;;14.65;10.27;;;;;;;14.26;62.17;98179.72;4971811;28;20043;-72
2023/03/22 10:30:27;;;;;;;19.80;11.10;;;;;;;14.28;62.71;98180.22;4970660;28;20046;-73
2023/03/22 10:33:00;;;;;;;18.55;12.07;;;;;;;14.37;62.26;98184.91;4951783;28;20047;-77
2023/03/22 10:35:26;;;;;;;17.50;11.98;;;;;;;14.43;62.38;98183.59;4969487;28;20117;-74
2023/03/22 10:37:54;;;;;;;18.02;11.80;;;;;;;14.43;61.03;98184.38;4972205;28;20079;-73
2023/03/22 10:40:27;;;;;;;19.50;10.38;;;;;;;14.36;61.73;98186.84;4969291;28;20101;-73
2023/03/22 10:43:04;;;;;;;18.10;11.48;;;;;;;14.34;60.79;98182.81;4970629;28;20038;-74
2023/03/22 10:45:33;;;;;;;15.73;10.68;;;;;;;14.32;60.71;98182.31;4969687;28;20662;-73
2023/03/22 10:48:06;;;;;;;15.55;10.27;;;;;;;14.33;60.27;98186.69;4970166;28;20058;-74
2023/03/22 10:50:35;;;;;;;15.63;10.73;;;;;;;14.33;60.13;98181.19;4969317;28;20471;-73
2023/03/22 10:53:11;;;;;;;17.65;11.15;;;;;;;14.38;60.41;98178.25;4970212;28;20536;-74
2023/03/22 10:55:41;;;;;;;15.50;10.50;;;;;;;14.41;61.12;98180.34;4968184;28;20483;-73
2023/03/22 10:58:14;;;;;;;16.10;10.43;;;;;;;14.39;60.75;98182.63;4969814;28;20446;-73
2023/03/22 11:00:44;;;;;;;15.73;9.80;;;;;;;14.39;60.45;98174.34;4969367;28;20699;-73
2023/03/22 11:03:25;;;;;;;16.95;10.70;;;;;;;14.40;60.89;98176.78;4970010;28;20039;-73
2023/03/22 11:06:12;;;;;;;14.75;10.25;;;;;;;14.44;60.92;98174.97;4985283;28;20022;-72
2023/03/22 11:08:53;;;;;;;12.85;9.80;;;;;;;14.53;60.74;98172.19;4970405;28;20483;-73
2023/03/22 11:11:22;;;;;;;13.77;9.73;;;;;;;14.64;60.77;98171.81;4973215;28;20027;-71
2023/03/22 11:13:54;;;;;;;17.10;11.10;;;;;;;14.69;60.76;98171.69;4973047;28;20110;-73
2023/03/22 11:16:21;;;;;;;15.13;10.40;;;;;;;14.78;60.69;98161.41;4977271;28;20022;-72
2023/03/22 11:18:46;;;;;;;13.23;9.98;;;;;;;14.85;60.02;98161.72;4972883;28;20470;-72
2023/03/22 11:21:15;;;;;;;14.27;9.70;;;;;;;14.94;60.50;98158.09;4972873;28;20103;-73
2023/03/22 11:23:56;;;;;;;18.38;12.25;;;;;;;14.99;59.72;98155.13;4971955;28;20042;-74
2023/03/22 11:26:32;;;;;;;17.25;10.70;;;;;;;15.04;59.46;98157.72;4967798;28;20059;-73
2023/03/22 11:29:17;;;;;;;22.20;11.98;;;;;;;15.10;59.38;98150.84;4973757;28;20105;-73